Time;durP1;ratioP1;P1;durP2;ratioP2;P2;SDS_P1;SDS_P2;PMS_P1;PMS_P2;Temp;Humidity;BMP_temperature;BMP_pressure;BME280_temperature;BME280_humidity;BME280_pressure;Samples;Min_cycle;Max_cycle;Signal;HPM_P1;HPM_P2
2023/03/29 00:01:05;;;;;;;5.97;3.55;;;;;;;4.92;97.27;101597.34;4927601;29;20034;-86
2023/03/29 00:03:33;;;;;;;6.30;3.53;;;;;;;4.92;97.44;101596.50;4945724;28;20390;-87
2023/03/29 00:06:02;;;;;;;6.22;3.60;;;;;;;4.94;97.29;101594.66;4933512;29;20079;-87
2023/03/29 00:08:36;;;;;;;5.93;3.47;;;;;;;4.95;97.28;101586.78;4918573;29;20024;-87
2023/03/29 00:11:08;;;;;;;5.22;3.20;;;;;;;4.99;97.20;101590.13;4931704;29;20036;-87
2023/03/29 00:13:39;;;;;;;5.73;3.30;;;;;;;4.96;98.12;101593.69;4942284;29;20047;-87
2023/03/29 00:16:05;;;;;;;5.72;3.50;;;;;;;4.97;98.14;101592.78;4942521;29;20089;-87
2023/03/29 00:18:34;;;;;;;4.75;3.33;;;;;;;4.97;98.73;101584.97;4939176;29;20050;-87
2023/03/29 00:21:02;;;;;;;6.07;3.72;;;;;;;4.99;98.73;101580.53;4931601;29;20038;-88
2023/03/29 00:23:28;;;;;;;6.03;3.60;;;;;;;4.98;98.13;101581.44;4939593;29;20027;-87
2023/03/29 00:25:56;;;;;;;12.07;3.75;;;;;;;4.99;98.75;101575.31;4919106;29;20047;-87
2023/03/29 00:28:25;;;;;;;6.60;3.58;;;;;;;4.99;98.75;101577.94;4925426;29;20114;-87
2023/03/29 00:31:06;;;;;;;7.95;3.50;;;;;;;5.01;99.67;101572.66;4945619;29;20122;-87
2023/03/29 00:33:40;;;;;;;7.45;3.72;;;;;;;4.99;99.52;101567.50;4917150;29;20042;-87
2023/03/29 00:36:16;;;;;;;6.50;3.55;;;;;;;5.02;99.30;101571.75;4931484;29;20543;-87
2023/03/29 00:38:52;;;;;;;7.55;3.40;;;;;;;5.02;100.00;101569.97;4946675;29;20039;-87
2023/03/29 00:41:17;;;;;;;6.18;3.50;;;;;;;5.03;100.00;101574.28;4951424;29;20377;-87
2023/03/29 00:44:10;;;;;;;5.50;3.25;;;;;;;5.06;100.00;101572.47;4918109;29;20035;-87
2023/03/29 00:46:41;;;;;;;5.55;3.67;;;;;;;5.08;100.00;101575.88;4930962;29;20044;-86
2023/03/29 00:49:12;;;;;;;7.93;3.28;;;;;;;5.06;100.00;101570.72;4928773;29;20115;-86
2023/03/29 00:51:43;;;;;;;6.43;3.30;;;;;;;5.06;99.91;101562.03;4927953;29;20180;-87
2023/03/29 00:54:21;;;;;;;6.63;3.67;;;;;;;5.09;99.93;101565.38;4920949;29;20039;-87
2023/03/29 00:56:50;;;;;;;7.07;3.65;;;;;;;5.10;99.79;101561.84;4930542;29;20043;-86
2023/03/29 00:59:31;;;;;;;6.25;3.35;;;;;;;5.14;99.67;101550.38;4921926;29;20056;-86
2023/03/29 01:02:02;;;;;;;8.50;3.20;;;;;;;5.14;99.50;101550.38;4924068;29;20122;-87
2023/03/29 01:04:45;;;;;;;5.80;3.53;;;;;;;5.16;100.00;101552.94;4921306;29;20050;-87
2023/03/29 01:07:21;;;;;;;5.75;3.75;;;;;;;5.18;100.00;101540.69;4929119;29;20059;-87
2023/03/29 01:09:53;;;;;;;7.60;3.63;;;;;;;5.18;100.00;101543.28;4914559;29;20051;-87
2023/03/29 01:12:34;;;;;;;7.40;3.33;;;;;;;5.21;100.00;101540.56;4899646;29;20067;-86
2023/03/29 01:15:41;;;;;;;6.50;3.50;;;;;;;5.24;100.00;101540.44;4951882;29;20115;-87
2023/03/29 01:18:09;;;;;;;5.63;3.47;;;;;;;5.21;100.00;101537.97;4928600;28;20047;-87
2023/03/29 01:21:01;;;;;;;5.20;3.55;;;;;;;5.25;100.00;101544.75;4936365;29;20401;-87
2023/03/29 01:24:05;;;;;;;5.03;3.45;;;;;;;5.26;100.00;101528.19;4913747;29;20676;-87
2023/03/29 01:26:52;;;;;;;9.70;3.47;;;;;;;5.25;100.00;101527.34;4903663;29;20545;-87
2023/03/29 01:29:27;;;;;;;7.32;3.65;;;;;;;5.26;100.00;101522.97;4903758;29;20060;-86
2023/03/29 01:32:02;;;;;;;8.68;3.28;;;;;;;5.26;100.00;101525.59;4926910;29;20047;-87
2023/03/29 01:34:56;;;;;;;7.25;3.40;;;;;;;5.31;100.00;101515.81;4881810;29;20103;-87
2023/03/29 01:38:04;;;;;;;8.48;3.85;;;;;;;5.32;100.00;101507.91;4897445;29;20043;-87
2023/03/29 01:40:47;;;;;;;7.30;3.58;;;;;;;5.31;100.00;101511.44;4927007;29;20051;-87
2023/03/29 01:43:58;;;;;;;9.10;3.97;;;;;;;5.35;100.00;101512.16;4928923;29;20074;-87
2023/03/29 01:46:51;;;;;;;5.03;3.40;;;;;;;5.33;100.00;101509.59;4897190;29;20051;-87
2023/03/29 01:49:36;;;;;;;5.35;3.33;;;;;;;5.35;100.00;101496.50;4895949;29;20776;-86
2023/03/29 01:52:32;;;;;;;6.47;3.75;;;;;;;5.41;100.00;101501.47;4920035;29;20841;-87
2023/03/29 01:55:08;;;;;;;6.78;3.90;;;;;;;5.34;100.00;101484.38;4905910;29;20122;-87
2023/03/29 01:57:43;;;;;;;7.97;3.33;;;;;;;5.37;100.00;101481.63;4961804;28;20408;-87
2023/03/29 02:00:21;;;;;;;7.43;3.60;;;;;;;5.37;100.00;101473.78;4936507;29;20417;-87
2023/03/29 02:02:59;;;;;;;5.35;3.33;;;;;;;5.40;100.00;101475.44;4935030;29;20063;-87
2023/03/29 02:05:38;;;;;;;4.43;3.00;;;;;;;5.41;100.00;101475.38;4951778;29;20039;-87
2023/03/29 02:08:14;;;;;;;6.95;3.70;;;;;;;5.45;100.00;101468.25;4923470;29;20061;-88
2023/03/29 02:10:44;;;;;;;4.75;3.38;;;;;;;5.44;100.00;101464.78;4934750;29;20054;-87
2023/03/29 02:13:17;;;;;;;7.07;3.55;;;;;;;5.46;100.00;101467.34;4932441;29;20043;-87
2023/03/29 02:16:00;;;;;;;8.05;3.45;;;;;;;5.46;100.00;101470.78;4932591;29;20029;-87
2023/03/29 02:18:31;;;;;;;7.13;3.47;;;;;;;5.46;100.00;101462.97;4948932;29;20082;-87
2023/03/29 02:21:00;;;;;;;6.68;3.40;;;;;;;5.49;100.00;101454.16;4951203;29;20105;-87
2023/03/29 02:23:49;;;;;;;5.05;3.28;;;;;;;5.55;100.00;101446.91;4932367;29;20125;-87
2023/03/29 02:26:18;;;;;;;6.10;3.38;;;;;;;5.54;100.00;101460.88;4933647;29;20039;-87
2023/03/29 02:28:47;;;;;;;6.43;3.28;;;;;;;5.54;100.00;101455.66;4964986;28;20122;-87
2023/03/29 02:31:30;;;;;;;7.70;3.08;;;;;;;5.57;100.00;101450.28;4923296;29;20103;-87
2023/03/29 02:34:15;;;;;;;6.93;3.15;;;;;;;5.58;98.95;101449.38;4942329;29;20046;-86
2023/03/29 02:36:49;;;;;;;8.05;3.08;;;;;;;5.62;98.10;101440.53;4950948;29;20043;-87
2023/03/29 02:39:24;;;;;;;4.68;2.88;;;;;;;5.63;97.40;101441.38;4951010;29;20067;-86
2023/03/29 02:41:53;;;;;;;9.35;3.40;;;;;;;5.66;95.96;101444.69;4950412;29;20043;-86
2023/03/29 02:44:39;;;;;;;6.72;2.90;;;;;;;5.70;96.63;101437.56;4952563;29;20038;-86
2023/03/29 02:47:12;;;;;;;4.60;2.80;;;;;;;5.70;95.89;101434.97;4950776;29;20373;-86
2023/03/29 02:49:38;;;;;;;6.55;2.80;;;;;;;5.75;95.95;101426.91;4937949;29;20038;-87
2023/03/29 02:55:33;;;;;;;7.07;3.38;;;;;;;5.78;94.36;101421.56;4914933;29;20560;-87
2023/03/29 02:58:02;;;;;;;6.13;3.13;;;;;;;5.78;94.14;101422.41;4928556;29;20064;-87
2023/03/29 03:00:28;;;;;;;7.35;3.30;;;;;;;5.80;94.12;101414.50;4956019;28;20042;-86
2023/03/29 03:02:56;;;;;;;6.60;2.85;;;;;;;5.80;93.45;101414.50;4951100;29;20480;-86
2023/03/29 03:05:24;;;;;;;4.63;2.75;;;;;;;5.83;93.17;101419.59;4947880;29;20116;-86
2023/03/29 03:07:53;;;;;;;3.33;2.40;;;;;;;5.83;93.62;101417.81;4924369;29;20103;-87
2023/03/29 03:10:22;;;;;;;6.28;2.75;;;;;;;5.85;93.01;101418.59;4949038;29;20102;-87
2023/03/29 03:12:50;;;;;;;6.07;2.83;;;;;;;5.88;92.64;101420.22;4950424;29;20447;-87
2023/03/29 03:15:26;;;;;;;6.53;2.80;;;;;;;5.89;93.11;101414.09;4949507;29;20046;-87
2023/03/29 03:17:54;;;;;;;6.20;3.00;;;;;;;5.87;93.23;101415.91;4931168;29;20040;-87
2023/03/29 03:20:25;;;;;;;5.68;2.70;;;;;;;5.89;92.65;101414.09;4934292;29;20403;-87
2023/03/29 03:22:56;;;;;;;5.50;2.67;;;;;;;5.91;92.81;101412.28;4943228;29;20043;-86
2023/03/29 03:25:28;;;;;;;6.20;2.60;;;;;;;5.93;93.12;101405.22;4923003;29;20043;-86
2023/03/29 03:27:54;;;;;;;5.45;2.90;;;;;;;5.92;92.43;101398.31;4932220;29;20031;-87
2023/03/29 03:30:28;;;;;;;4.70;2.80;;;;;;;5.94;92.34;101397.31;4946692;29;20046;-87
2023/03/29 03:32:56;;;;;;;6.40;3.00;;;;;;;5.93;92.88;101393.00;4947541;29;20150;-86
2023/03/29 03:35:25;;;;;;;6.05;2.90;;;;;;;5.97;92.57;101391.94;4951644;28;20043;-87
2023/03/29 03:37:50;;;;;;;7.45;3.28;;;;;;;5.96;92.13;101397.25;4952101;29;20420;-87
2023/03/29 03:40:21;;;;;;;7.28;2.70;;;;;;;5.96;92.17;101399.84;4932663;29;20059;-87
2023/03/29 03:42:55;;;;;;;5.15;2.90;;;;;;;5.98;91.96;101395.41;4947317;29;20094;-86
2023/03/29 03:45:24;;;;;;;8.32;3.10;;;;;;;6.00;91.70;101400.56;4931987;29;20066;-87
2023/03/29 03:47:53;;;;;;;7.20;3.28;;;;;;;5.98;91.99;101403.25;4951281;29;20035;-86
2023/03/29 03:50:23;;;;;;;4.80;3.15;;;;;;;6.03;91.95;101405.66;4949385;29;20046;-86
2023/03/29 03:52:51;;;;;;;7.30;3.35;;;;;;;6.03;92.36;101400.44;4934671;29;20043;-87
2023/03/29 03:55:20;;;;;;;4.75;2.90;;;;;;;6.01;92.60;101402.28;4945075;29;20446;-87
2023/03/29 03:57:46;;;;;;;6.57;3.28;;;;;;;6.03;92.14;101400.44;4958624;28;20034;-87
2023/03/29 04:00:22;;;;;;;7.22;3.28;;;;;;;6.06;92.03;101406.38;4935565;29;20094;-87
2023/03/29 04:02:48;;;;;;;4.72;2.90;;;;;;;6.06;92.38;101393.31;4950647;29;20039;-86
2023/03/29 04:05:14;;;;;;;5.28;3.25;;;;;;;6.06;92.16;101395.06;4949524;29;20039;-87
2023/03/29 04:07:51;;;;;;;6.25;3.15;;;;;;;6.03;91.17;101390.00;4941756;29;20028;-86
2023/03/29 04:10:17;;;;;;;5.93;3.22;;;;;;;6.03;91.40;101384.78;4941447;29;20063;-86
2023/03/29 04:12:42;;;;;;;6.55;3.38;;;;;;;6.04;91.98;101381.25;4933097;29;20434;-87
2023/03/29 04:15:09;;;;;;;6.25;3.10;;;;;;;6.03;91.49;101384.78;4940845;29;20044;-87
2023/03/29 04:17:35;;;;;;;7.55;3.47;;;;;;;6.06;91.42;101389.84;4954546;28;20408;-87
2023/03/29 04:20:05;;;;;;;6.25;3.35;;;;;;;6.07;91.49;101387.16;4951446;29;20051;-86
2023/03/29 04:22:31;;;;;;;6.22;3.33;;;;;;;6.03;91.86;101382.16;4932197;29;20416;-87
2023/03/29 04:25:10;;;;;;;5.88;2.90;;;;;;;6.06;91.40;101385.47;4951188;29;20054;-87
2023/03/29 04:27:35;;;;;;;5.85;3.17;;;;;;;6.07;91.77;101371.50;4930845;29;20063;-86
2023/03/29 04:30:06;;;;;;;7.20;3.05;;;;;;;6.10;91.49;101371.34;4944574;29;20055;-87
2023/03/29 04:32:37;;;;;;;7.15;3.28;;;;;;;6.11;91.34;101370.44;4915502;29;20461;-86
2023/03/29 04:35:06;;;;;;;4.83;3.10;;;;;;;6.13;91.25;101371.19;4950871;29;20035;-87
2023/03/29 04:37:43;;;;;;;8.20;3.33;;;;;;;6.16;91.53;101370.22;4946554;29;20303;-87
2023/03/29 04:40:18;;;;;;;9.98;3.58;;;;;;;6.16;91.47;101368.44;4930153;29;20043;-87
2023/03/29 04:42:47;;;;;;;6.78;3.53;;;;;;;6.18;91.18;101369.22;4921684;29;20408;-87
2023/03/29 04:45:21;;;;;;;5.82;3.33;;;;;;;6.19;91.33;101381.34;4947793;28;20078;-87
2023/03/29 04:47:49;;;;;;;6.53;3.60;;;;;;;6.22;91.41;101365.53;4941108;29;20034;-87
2023/03/29 04:50:18;;;;;;;7.65;3.60;;;;;;;6.23;91.00;101371.59;4948784;29;20389;-87
2023/03/29 04:52:44;;;;;;;8.05;3.60;;;;;;;6.25;90.63;101360.16;4935842;29;20036;-87
2023/03/29 04:55:12;;;;;;;7.70;3.83;;;;;;;6.27;91.18;101363.53;4933946;29;20035;-87
2023/03/29 04:58:03;;;;;;;6.22;3.38;;;;;;;6.29;91.17;101359.09;4933771;29;20043;-86
2023/03/29 05:00:30;;;;;;;4.78;3.45;;;;;;;6.29;90.22;101356.47;4932752;29;20035;-87
2023/03/29 05:02:56;;;;;;;7.47;3.63;;;;;;;6.31;90.45;101358.16;4914151;29;20043;-87
2023/03/29 05:05:25;;;;;;;6.50;3.45;;;;;;;6.32;91.20;101354.63;4898721;29;20052;-87
2023/03/29 05:07:56;;;;;;;5.85;3.25;;;;;;;6.34;90.76;101360.63;4916198;29;20159;-87
2023/03/29 05:10:23;;;;;;;7.22;4.05;;;;;;;6.36;90.73;101358.78;4910865;29;20072;-87
2023/03/29 05:12:52;;;;;;;6.85;3.70;;;;;;;6.37;90.95;101357.88;4898224;29;20075;-87
2023/03/29 05:15:25;;;;;;;6.38;3.50;;;;;;;6.36;91.16;101357.03;4905155;29;20155;-87
2023/03/29 05:17:57;;;;;;;5.63;3.45;;;;;;;6.39;91.09;101350.81;4914164;29;20051;-87
2023/03/29 05:20:23;;;;;;;5.72;3.72;;;;;;;6.41;91.00;101346.38;4925456;29;20441;-87
2023/03/29 05:22:49;;;;;;;4.68;3.53;;;;;;;6.43;91.25;101349.75;4897311;29;20036;-87
2023/03/29 05:25:18;;;;;;;6.55;3.70;;;;;;;6.44;91.08;101339.22;4922314;29;20055;-87
2023/03/29 05:27:44;;;;;;;6.82;3.75;;;;;;;6.49;90.80;101346.84;4929351;29;20051;-87
2023/03/29 05:30:19;;;;;;;6.57;3.90;;;;;;;6.48;90.55;101351.22;4905961;29;20069;-87
2023/03/29 05:32:45;;;;;;;8.48;3.85;;;;;;;6.52;90.67;101363.22;4896045;29;20044;-87
2023/03/29 05:35:11;;;;;;;8.75;3.70;;;;;;;6.54;91.29;101352.69;4897453;29;20064;-87
2023/03/29 05:37:43;;;;;;;9.07;3.90;;;;;;;6.57;91.36;101370.84;4948691;29;20437;-87
2023/03/29 05:40:12;;;;;;;6.40;3.40;;;;;;;6.62;90.55;101363.63;4929408;29;20043;-87
2023/03/29 05:42:37;;;;;;;7.40;4.10;;;;;;;6.60;90.36;101376.75;4935088;29;20294;-87
2023/03/29 05:45:10;;;;;;;7.40;3.60;;;;;;;6.64;91.12;101371.38;4953817;29;20046;-87
2023/03/29 05:47:35;;;;;;;;;;;;;;;6.72;90.76;101367.47;4927242;29;20051;-87
2023/03/29 05:50:01;;;;;;;9.40;4.03;;;;;;;6.69;90.55;101365.00;4933270;29;19907;-87
2023/03/29 05:52:29;;;;;;;8.10;3.80;;;;;;;6.71;90.94;101368.38;4956799;28;20040;-88
2023/03/29 05:54:55;;;;;;;7.47;4.05;;;;;;;6.74;90.80;101373.47;4948987;29;20046;-88
2023/03/29 05:57:23;;;;;;;6.68;3.80;;;;;;;6.78;90.74;101372.38;4939927;28;20493;-87
2023/03/29 05:59:49;;;;;;;6.93;3.70;;;;;;;6.78;90.91;101369.75;4934705;29;20040;-87
2023/03/29 06:02:15;;;;;;;7.72;3.97;;;;;;;6.79;91.14;101376.69;4931757;29;20046;-87
2023/03/29 06:04:41;;;;;;;7.03;3.78;;;;;;;6.82;90.91;101370.47;4947398;29;20043;-88
2023/03/29 06:07:11;;;;;;;8.20;4.05;;;;;;;6.83;90.96;101378.25;4917427;29;20038;-87
2023/03/29 06:09:40;;;;;;;9.80;3.88;;;;;;;6.87;90.74;101374.56;4947186;28;20078;-87
2023/03/29 06:12:06;;;;;;;7.40;4.10;;;;;;;6.89;91.21;101372.72;4940090;29;20091;-87
2023/03/29 06:14:36;;;;;;;7.30;3.75;;;;;;;6.95;90.30;101376.78;4913794;29;20088;-89
2023/03/29 06:17:01;;;;;;;6.10;4.18;;;;;;;6.98;91.08;101371.41;4931567;29;20110;-88
2023/03/29 06:19:27;;;;;;;9.68;4.18;;;;;;;7.00;90.84;101373.94;4945485;29;20182;-88
2023/03/29 06:21:58;;;;;;;9.35;4.20;;;;;;;7.06;90.79;101378.84;4933721;29;20069;-89
2023/03/29 06:24:48;;;;;;;6.72;4.10;;;;;;;7.08;91.01;101377.00;4936317;29;20507;-89
2023/03/29 06:27:34;;;;;;;6.53;3.95;;;;;;;7.10;90.97;101376.00;4951054;29;20139;-89
2023/03/29 06:30:26;;;;;;;8.40;4.50;;;;;;;7.15;91.58;101373.16;4931278;29;20048;-89
2023/03/29 06:32:52;;;;;;;11.48;4.22;;;;;;;7.16;91.46;101374.84;4935623;29;20061;-89
2023/03/29 06:35:56;;;;;;;7.15;4.07;;;;;;;7.23;91.17;101376.25;4935636;29;20078;-89
2023/03/29 06:38:35;;;;;;;7.75;4.30;;;;;;;7.25;90.99;101369.16;4925930;29;20039;-89
2023/03/29 06:41:32;;;;;;;7.70;4.30;;;;;;;7.32;90.96;101367.91;4932508;29;20496;-89
2023/03/29 06:43:58;;;;;;;7.85;4.10;;;;;;;7.34;91.43;101368.66;4943967;29;20083;-89
2023/03/29 06:46:26;;;;;;;10.85;4.45;;;;;;;7.40;91.34;101370.97;4934018;29;20071;-89
2023/03/29 06:48:57;;;;;;;6.65;4.60;;;;;;;7.44;91.43;101363.78;4933916;29;20111;-89
2023/03/29 06:51:36;;;;;;;7.70;4.07;;;;;;;7.50;91.25;101364.31;4921192;29;20552;-89
2023/03/29 06:54:03;;;;;;;7.18;4.57;;;;;;;7.57;90.93;101374.44;4929841;29;20090;-89
2023/03/29 06:56:31;;;;;;;10.20;5.10;;;;;;;7.61;91.07;101363.75;4932561;29;20023;-89
2023/03/29 06:59:18;;;;;;;7.43;4.05;;;;;;;7.74;91.45;101374.41;4933170;29;20063;-89
2023/03/29 07:01:43;;;;;;;8.20;4.45;;;;;;;7.80;91.37;101369.69;4945169;29;20107;-89
2023/03/29 07:04:13;;;;;;;8.85;4.57;;;;;;;7.86;90.95;101381.59;4951948;29;20039;-89
2023/03/29 07:06:47;;;;;;;8.02;4.30;;;;;;;7.89;91.15;101384.06;4934023;29;20035;-89
2023/03/29 07:09:15;;;;;;;8.30;4.47;;;;;;;7.93;90.86;101384.75;4932240;29;20884;-89
2023/03/29 07:11:45;;;;;;;8.63;4.32;;;;;;;7.95;90.84;101380.25;4936103;29;20103;-89
2023/03/29 07:14:14;;;;;;;8.07;4.20;;;;;;;7.98;91.02;101380.94;4911923;29;20500;-89
2023/03/29 07:16:39;;;;;;;9.75;4.13;;;;;;;8.00;90.88;101378.22;4912331;29;20521;-89
2023/03/29 07:19:14;;;;;;;7.32;4.18;;;;;;;8.06;91.11;101384.00;4906473;29;20048;-89
2023/03/29 07:21:39;;;;;;;9.32;4.40;;;;;;;8.09;90.63;101373.34;4892990;29;20051;-89
2023/03/29 07:24:15;;;;;;;6.88;4.47;;;;;;;8.15;90.85;101383.50;4912060;29;20040;-89
2023/03/29 07:26:51;;;;;;;10.00;4.65;;;;;;;8.17;90.45;101386.88;4911941;29;20044;-89
2023/03/29 07:29:26;;;;;;;8.77;4.18;;;;;;;8.22;90.67;101386.63;4893634;29;20051;-89
2023/03/29 07:32:01;;;;;;;7.82;4.35;;;;;;;8.24;90.44;101395.25;4892128;29;20047;-90
2023/03/29 07:34:28;;;;;;;11.23;5.03;;;;;;;8.29;90.71;101394.97;4887832;29;20176;-90
2023/03/29 07:36:54;;;;;;;7.68;4.43;;;;;;;8.32;90.78;101397.44;4900088;29;20040;-90
2023/03/29 07:39:29;;;;;;;9.73;4.50;;;;;;;8.37;90.65;101412.00;4906317;29;20429;-89
2023/03/29 07:42:02;;;;;;;8.80;4.45;;;;;;;8.34;90.71;101403.47;4892571;29;20533;-89
2023/03/29 07:44:28;;;;;;;8.73;4.55;;;;;;;8.38;90.96;101416.31;4907137;29;20039;-86
2023/03/29 07:46:58;;;;;;;8.38;4.55;;;;;;;8.39;91.01;101414.53;4911489;29;20111;-86
2023/03/29 07:49:27;;;;;;;9.43;4.30;;;;;;;8.40;91.88;101413.59;4912293;29;20036;-86
2023/03/29 07:51:56;;;;;;;10.27;4.95;;;;;;;8.39;92.27;101418.00;4949235;28;20043;-86
2023/03/29 07:54:24;;;;;;;11.32;5.40;;;;;;;8.41;92.36;101410.94;4912698;29;20047;-86
2023/03/29 07:56:59;;;;;;;9.90;5.10;;;;;;;8.46;92.37;101418.53;4898130;29;20032;-86
2023/03/29 07:59:47;;;;;;;10.95;5.18;;;;;;;8.51;92.67;101416.50;4913542;29;20036;-86
2023/03/29 08:02:27;;;;;;;8.00;4.95;;;;;;;8.51;93.67;101413.03;4913233;29;20040;-86
2023/03/29 08:04:56;;;;;;;9.00;5.03;;;;;;;8.51;95.49;101411.25;4911881;29;20039;-89
2023/03/29 08:08:05;;;;;;;10.23;4.70;;;;;;;8.53;96.19;101403.28;4905377;29;20043;-90
2023/03/29 08:10:46;;;;;;;10.88;5.45;;;;;;;8.53;96.46;101409.38;4924869;29;20694;-90
2023/03/29 08:13:20;;;;;;;12.77;5.68;;;;;;;8.57;97.67;101410.91;4918511;29;20390;-90
2023/03/29 08:16:05;;;;;;;;;;;;;;;;;;;;;
2023/03/29 08:18:33;;;;;;;8.45;5.70;;;;;;;8.58;99.42;101412.59;4912816;29;20040;-90
2023/03/29 08:21:43;;;;;;;11.50;5.75;;;;;;;8.64;100.00;101409.63;4912000;29;20079;-89
2023/03/29 08:24:17;;;;;;;11.93;6.13;;;;;;;8.76;99.92;101411.53;4912852;29;20040;-89
2023/03/29 08:27:02;;;;;;;;;;;;;;;;;;;;;
2023/03/29 08:29:31;;;;;;;10.55;5.97;;;;;;;8.96;99.40;101392.03;4926596;29;20036;-90
2023/03/29 08:32:00;;;;;;;11.02;5.60;;;;;;;8.99;98.25;101391.00;4926716;29;21517;-90
2023/03/29 08:34:30;;;;;;;11.32;6.18;;;;;;;9.05;98.61;101390.63;4900032;29;20039;-90
2023/03/29 08:36:56;;;;;;;11.95;6.15;;;;;;;9.01;99.00;101397.00;4902394;29;20131;-90
2023/03/29 08:39:21;;;;;;;10.10;5.97;;;;;;;9.08;98.75;101395.69;4924436;29;20123;-89
2023/03/29 08:42:05;;;;;;;11.93;6.10;;;;;;;9.21;98.92;101388.81;4917474;29;20067;-91
2023/03/29 08:45:11;;;;;;;11.73;6.15;;;;;;;9.33;98.55;101390.69;4895858;29;20409;-90
2023/03/29 08:48:36;;;;;;;9.38;5.68;;;;;;;9.41;98.88;101398.94;4911420;29;20043;-90
2023/03/29 08:50:51;;;;;;;9.50;6.18;;;;;;;9.45;98.38;101394.34;4906649;29;20493;-90
2023/03/29 08:53:41;;;;;;;11.25;6.60;;;;;;;9.53;97.43;101392.09;4905385;29;20094;-90
2023/03/29 08:56:26;;;;;;;11.20;6.35;;;;;;;9.60;98.33;101388.16;4934937;29;20043;-90
2023/03/29 08:59:23;;;;;;;8.52;5.95;;;;;;;9.62;98.46;101380.22;4928109;29;20469;-89
2023/03/29 09:05:24;;;;;;;12.20;6.50;;;;;;;9.87;97.53;101385.63;4917663;29;20134;-89
2023/03/29 09:07:49;;;;;;;10.15;6.55;;;;;;;9.86;96.61;101380.47;4836176;29;20124;-89
2023/03/29 09:10:23;;;;;;;10.48;6.15;;;;;;;9.84;96.95;101385.81;4845937;29;20090;-89
2023/03/29 09:13:30;;;;;;;11.45;6.18;;;;;;;9.81;97.23;101379.91;4926729;29;20044;-89
2023/03/29 09:16:17;;;;;;;10.88;5.93;;;;;;;9.77;97.40;101394.19;4908383;29;20035;-89
2023/03/29 09:19:20;;;;;;;9.18;6.30;;;;;;;9.68;98.14;101406.94;4928907;29;20510;-89
2023/03/29 09:22:07;;;;;;;10.45;6.30;;;;;;;9.57;99.38;101384.88;4944364;29;20562;-89
2023/03/29 09:24:45;;;;;;;12.68;6.55;;;;;;;9.55;100.00;101389.38;4917992;29;20043;-89
2023/03/29 09:27:49;;;;;;;9.13;6.22;;;;;;;9.60;100.00;101389.94;4920064;29;20040;-89
2023/03/29 09:30:48;;;;;;;9.43;6.68;;;;;;;9.65;100.00;101387.91;4934253;29;20076;-89
2023/03/29 09:33:43;;;;;;;12.00;6.50;;;;;;;9.77;100.00;101386.28;4931662;29;20130;-89
2023/03/29 09:36:29;;;;;;;9.52;6.30;;;;;;;9.92;100.00;101398.47;4934012;29;20039;-89
2023/03/29 09:38:56;;;;;;;11.50;6.88;;;;;;;9.98;100.00;101388.41;4931336;29;20066;-89
2023/03/29 09:42:18;;;;;;;13.52;7.35;;;;;;;9.93;100.00;101398.38;4916952;29;20413;-89
2023/03/29 09:44:54;;;;;;;13.25;7.32;;;;;;;9.80;100.00;101389.56;4910550;29;20043;-90
2023/03/29 09:47:24;;;;;;;12.77;7.28;;;;;;;9.78;100.00;101391.44;4938686;29;20035;-90
2023/03/29 09:50:09;;;;;;;12.93;7.82;;;;;;;9.73;100.00;101383.00;4935029;29;20043;-90
2023/03/29 09:52:34;;;;;;;12.25;8.13;;;;;;;9.72;100.00;101386.59;4945162;28;20071;-91
2023/03/29 09:55:05;;;;;;;10.90;7.32;;;;;;;9.73;100.00;101383.84;4934865;29;20036;-90
2023/03/29 09:57:37;;;;;;;11.93;7.45;;;;;;;9.73;100.00;101388.28;4931934;29;20409;-90
2023/03/29 10:00:09;;;;;;;16.03;7.90;;;;;;;9.78;100.00;101390.63;4932833;29;20518;-89
2023/03/29 10:02:41;;;;;;;11.07;7.40;;;;;;;9.77;100.00;101394.19;4915433;29;20284;-90
2023/03/29 10:05:15;;;;;;;9.05;7.20;;;;;;;9.88;100.00;101397.81;4917704;29;20039;-90
2023/03/29 10:08:11;;;;;;;12.07;7.93;;;;;;;10.03;100.00;101386.38;4952860;28;20453;-90
2023/03/29 10:10:40;;;;;;;11.18;7.93;;;;;;;10.23;100.00;101392.16;4935631;29;20039;-90
2023/03/29 10:13:34;;;;;;;12.95;7.85;;;;;;;10.37;100.00;101394.75;4931295;29;20039;-89
2023/03/29 10:16:08;;;;;;;12.73;7.82;;;;;;;10.32;100.00;101391.56;4909936;29;20091;-90
2023/03/29 10:19:00;;;;;;;11.77;7.80;;;;;;;10.43;100.00;101388.28;4938335;29;20058;-90
2023/03/29 10:21:28;;;;;;;11.60;6.95;;;;;;;10.48;100.00;101381.78;4915134;29;20043;-89
2023/03/29 10:24:00;;;;;;;10.63;7.10;;;;;;;10.52;100.00;101383.25;4926938;29;20036;-89
2023/03/29 10:26:43;;;;;;;10.82;6.82;;;;;;;10.46;100.00;101373.13;4925221;29;20515;-90
2023/03/29 10:29:17;;;;;;;12.02;7.32;;;;;;;10.94;100.00;101362.94;4931544;29;20066;-90
2023/03/29 10:32:06;;;;;;;11.65;6.65;;;;;;;11.33;100.00;101363.81;4937654;29;20051;-90
2023/03/29 10:34:35;;;;;;;9.57;6.13;;;;;;;11.42;100.00;101352.63;4926450;29;20039;-89
2023/03/29 10:37:05;;;;;;;6.82;5.82;;;;;;;11.54;100.00;101357.03;4940368;29;20489;-89
2023/03/29 10:39:34;;;;;;;9.70;6.43;;;;;;;11.54;100.00;101355.25;4936029;29;20047;-89
2023/03/29 10:42:03;;;;;;;12.82;6.80;;;;;;;11.57;100.00;101351.56;4924272;29;20449;-89
2023/03/29 10:44:41;;;;;;;9.07;6.15;;;;;;;11.74;100.00;101345.13;4933040;29;20039;-89
2023/03/29 10:47:37;;;;;;;11.27;6.28;;;;;;;11.88;98.00;101335.28;4916663;29;20541;-90
2023/03/29 10:50:16;;;;;;;10.00;6.22;;;;;;;12.32;95.61;101328.59;4914884;29;20035;-89
2023/03/29 10:52:49;;;;;;;7.63;5.60;;;;;;;12.46;92.46;101324.94;4934375;29;20031;-89
2023/03/29 10:55:34;;;;;;;;;;;;;;;;;;;;;
2023/03/29 10:58:20;;;;;;;9.65;5.68;;;;;;;13.20;90.50;101312.28;4930567;29;20036;-89
2023/03/29 11:00:53;;;;;;;11.90;5.90;;;;;;;13.38;88.81;101319.66;4931737;29;20119;-90
2023/03/29 11:04:04;;;;;;;8.90;5.95;;;;;;;13.54;89.90;101311.34;4943043;29;20035;-88
2023/03/29 11:06:51;;;;;;;9.55;5.22;;;;;;;13.53;88.14;101307.03;4932961;29;20044;-89
2023/03/29 11:09:35;;;;;;;7.45;5.15;;;;;;;13.66;86.23;101305.09;4939718;29;20043;-89
2023/03/29 11:12:37;;;;;;;8.57;5.13;;;;;;;13.99;87.12;101303.34;4943170;28;20103;-89
2023/03/29 11:15:16;;;;;;;11.40;5.73;;;;;;;14.36;85.46;101301.19;4922912;29;20082;-89
2023/03/29 11:17:54;;;;;;;9.57;5.15;;;;;;;14.37;83.09;101298.41;4934817;29;20038;-88
2023/03/29 11:20:24;;;;;;;10.00;5.50;;;;;;;14.20;80.79;101290.19;4939027;29;20059;-89
2023/03/29 11:23:34;;;;;;;8.82;5.68;;;;;;;14.07;84.14;101300.94;4933359;29;20032;-89
2023/03/29 11:26:33;;;;;;;7.43;5.30;;;;;;;13.78;84.05;101303.28;4932689;29;20036;-88
2023/03/29 11:29:24;;;;;;;8.15;5.45;;;;;;;13.77;84.86;101302.44;4942282;29;20420;-88
2023/03/29 11:32:20;;;;;;;8.90;5.47;;;;;;;13.93;84.21;101315.25;4945257;29;20071;-86
2023/03/29 11:35:30;;;;;;;11.18;5.38;;;;;;;13.96;82.90;101311.53;4933286;29;20030;-87
2023/03/29 11:38:17;;;;;;;8.43;5.15;;;;;;;14.06;82.60;101309.84;4931455;29;20408;-88
2023/03/29 11:40:56;;;;;;;8.77;5.45;;;;;;;14.16;83.23;101302.00;4931135;29;20097;-88
2023/03/29 11:44:04;;;;;;;8.10;5.38;;;;;;;14.39;84.06;101291.16;4916479;29;20496;-88
2023/03/29 11:46:55;;;;;;;8.23;5.00;;;;;;;14.66;82.40;101293.38;4946478;29;20035;-88
2023/03/29 11:49:47;;;;;;;8.75;5.30;;;;;;;14.90;79.72;101294.94;4922562;29;20048;-88
2023/03/29 11:52:34;;;;;;;6.70;5.10;;;;;;;14.90;80.05;101287.81;4949697;28;20078;-89
2023/03/29 11:55:31;;;;;;;10.30;4.82;;;;;;;14.91;80.19;101278.06;4947400;28;20043;-88
2023/03/29 11:58:21;;;;;;;7.15;4.70;;;;;;;14.98;79.75;101282.69;4932371;29;20032;-88
2023/03/29 12:00:59;;;;;;;6.38;4.70;;;;;;;14.99;76.12;101284.38;4931354;29;20104;-88
2023/03/29 12:04:01;;;;;;;9.32;4.63;;;;;;;15.13;77.88;101285.00;4939850;29;20075;-89
2023/03/29 12:07:10;;;;;;;7.70;4.75;;;;;;;15.02;78.31;101289.41;4923370;29;20032;-88
2023/03/29 12:10:08;;;;;;;8.38;4.43;;;;;;;14.66;76.84;101297.81;4915723;29;20074;-88
2023/03/29 12:12:53;;;;;;;7.70;4.50;;;;;;;14.50;78.08;101292.16;4902144;29;20068;-88
2023/03/29 12:15:52;;;;;;;8.63;5.03;;;;;;;14.46;78.65;101286.28;4908752;29;20043;-88
2023/03/29 12:18:35;;;;;;;6.88;4.88;;;;;;;14.46;78.76;101274.84;4910058;29;20048;-88
2023/03/29 12:21:02;;;;;;;;;;;;;;;14.64;80.09;101283.88;4891849;29;20123;-88
2023/03/29 12:23:31;;;;;;;8.40;4.90;;;;;;;14.45;77.73;101283.75;4915601;29;19942;-88